• Join FlightAware (Why Join?)
  • Login
  • US Flag 
Gobble Gobble! 
07:19AM EST


 

Airport Tracker/Info


-or-


 

Live Flight TrackerFlight Track Log ✈ SWA286 ✈ 09-Apr-2013 ✈ KBWI - KRSW

Flight Track Log - Related Links

Times and Time Zones

All times are in EDT time to prevent confusion due to time zone crossing. See the SWA286 flight status page for this flight to view local times or setup timezone preferences in your user account.

Time Position Orientation Groundspeed Altitude Reporting Facility
EDT Latitude Longitude Course Direction KTS MPH feet Rate Location/Type
05:04PM 39.1500 -76.7333 180° South 211 243 2,600  Level Potomac TRACON
05:05PM 39.1167 -76.6833 131° Southeast 230 265 4,800 2,700 Climbing Potomac TRACON
05:07PM 38.9764 -76.5208 138° Southeast 299 344 10,900 2,820 Climbing Washington Center
05:08PM 38.8789 -76.4850 164° South 330 380 13,800 1,500 Climbing Washington Center
05:09PM 38.6597 -76.9101 180° South  Level Estimated
05:09PM 38.7889 -76.5344 203° Southwest 317 365 14,000  Level Washington Center
05:10PM 38.7047 -76.6025 212° Southwest 323 372 15,200 1,920 Climbing Washington Center
05:11PM 38.6186 -76.6731 213° Southwest 346 398 17,900 2,580 Climbing Washington Center
05:12PM 38.5161 -76.7219 200° South 376 433 20,400 2,460 Climbing Washington Center
05:13PM 38.3975 -76.7044 173° South 399 459 22,900 1,800 Climbing Washington Center
05:14PM 38.2767 -76.6867 173° South 418 481 24,000 540 Climbing Washington Center
05:15PM 38.1539 -76.6717 175° South 435 501 24,000  Level Washington Center
05:16PM 38.0433 -76.6569 174° South 446 513 24,000 300 Level Washington Center
05:17PM 37.9225 -76.6394 173° South 446 513 24,700 1,380 Climbing Washington Center
05:18PM 37.7975 -76.6247 175° South 446 513 26,800 1,800 Climbing Washington Center
05:19PM 37.6706 -76.6072 174° South 446 513 28,400 1,620 Climbing Washington Center
05:20PM 37.5392 -76.5897 174° South 465 535 30,100 2,100 Climbing Washington Center
05:21PM 37.3975 -76.5800 177° South 471 542 32,600 1,920 Climbing Washington Center
05:22PM 37.2803 -76.6306 199° South 453 521 34,000 720 Climbing Washington Center
05:23PM 37.1608 -76.6839 200° South 449 517 34,100 900 Climbing Washington Center
05:24PM 37.0456 -76.7342 199° South 449 517 35,900 1,680 Climbing Washington Center
05:25PM 36.9303 -76.7844 199° South 449 517 37,500 1,020 Climbing Washington Center
05:26PM 36.8194 -76.8347 200° South 444 511 38,000 240 Climbing Washington Center
05:27PM 36.7042 -76.8847 199° South 439 505 38,000  Level Washington Center
05:28PM 36.5908 -76.9372 200° South 439 505 38,000  Level Washington Center
05:29PM 36.4775 -76.9842 198° South 439 505 38,000  Level Washington Center
05:30PM 36.3728 -77.0289 199° South 434 499 38,000  Level Washington Center
05:31PM 36.2594 -77.0758 198° South 434 499 38,000  Level Washington Center
05:32PM 36.1464 -77.1250 199° South 434 499 38,000  Level Washington Center
05:33PM 36.0244 -77.1792 200° South 429 494 38,000  Level Washington Center
05:34PM 35.9069 -77.2256 198° South 434 499 38,000  Level Washington Center
05:35PM 35.7936 -77.2769 200° South 434 499 38,000  Level Washington Center
05:36PM 35.6761 -77.3256 199° South 440 506 38,000  Level Washington Center
05:37PM 35.5628 -77.3717 198° South 447 514 38,000  Level Washington Center
05:38PM 35.4472 -77.4228 200° South 447 514 38,000  Level Washington Center
05:39PM 35.3275 -77.4683 197° South 447 514 38,000  Level Washington Center
05:40PM 35.2142 -77.5192 200° South 447 514 38,000  Level Washington Center
05:41PM 35.0986 -77.5669 199° South 447 514 38,000  Level Washington Center
05:42PM 34.9831 -77.6125 198° South 447 514 38,000  Level Washington Center
05:43PM 34.8656 -77.6600 198° South 447 514 38,000  Level Washington Center
05:44PM 34.7539 -77.7128 201° Southwest 447 514 38,000  Level Washington Center
05:45PM 34.6383 -77.7603 199° South 447 514 38,000  Level Washington Center
05:46PM 34.5206 -77.8078 198° South 447 514 38,000  Level Washington Center
05:48PM 34.2903 -77.8939 197° South 450 518 38,000  Level Jacksonville Center
05:49PM 34.1828 -77.9225 192° South 450 518 38,000  Level Jacksonville Center
05:50PM 34.0633 -77.9569 193° South 450 518 38,000  Level Jacksonville Center
05:51PM 33.9456 -77.9886 193° South 450 518 38,000  Level Jacksonville Center
05:52PM 33.8261 -78.0278 195° South 450 518 38,000  Level Jacksonville Center
05:53PM 33.7106 -78.0592 193° South 445 512 38,000  Level Jacksonville Center
05:54PM 33.5806 -78.0986 194° South 445 512 38,000  Level Jacksonville Center
05:55PM 33.4669 -78.1297 193° South 435 501 38,000  Level Jacksonville Center
05:56PM 33.3492 -78.1633 193° South 435 501 38,000  Level Jacksonville Center
05:57PM 33.2336 -78.1944 193° South 430 495 38,000  Level Jacksonville Center
05:58PM 33.1178 -78.2278 194° South 430 495 38,000  Level Jacksonville Center
05:59PM 33.0003 -78.2611 193° South 430 495 38,000  Level Jacksonville Center
06:00PM 32.8803 -78.2919 192° South 430 495 38,000  Level Jacksonville Center
06:01PM 32.7669 -78.3300 196° South 430 495 38,000  Level Jacksonville Center
06:02PM 32.6469 -78.3581 191° South 430 495 38,000  Level Jacksonville Center
06:03PM 32.5314 -78.3958 195° South 430 495 38,000  Level Jacksonville Center
06:04PM 32.4111 -78.4239 191° South 430 495 38,000  Level Jacksonville Center
06:05PM 32.2956 -78.4617 195° South 435 501 38,000  Level Jacksonville Center
06:06PM 32.1739 -78.4969 194° South 435 501 38,000  Level Jacksonville Center
06:07PM 32.0581 -78.5294 193° South 440 506 38,000  Level Jacksonville Center
06:08PM 31.9403 -78.5669 195° South 440 506 38,000  Level Jacksonville Center
06:09PM 31.8472 -78.5933 194° South 440 506 38,000  Level Jacksonville Center
06:10PM 31.7025 -78.6317 193° South 440 506 38,000  Level Jacksonville Center
06:11PM 31.5992 -78.6658 196° South 433 498 38,000  Level Jacksonville Center
06:12PM 31.4833 -78.6978 193° South 427 491 38,000  Level Jacksonville Center
06:13PM 31.3656 -78.7322 194° South 433 498 38,000  Level Jacksonville Center
06:14PM 31.2475 -78.7642 193° South 433 498 38,000  Level Jacksonville Center
06:15PM 31.1278 -78.8011 195° South 433 498 38,000  Level Jacksonville Center
06:16PM 30.9953 -78.8358 193° South 438 504 38,000  Level Jacksonville Center
06:17PM 30.8814 -78.8675 193° South 438 504 38,000  Level Jacksonville Center
06:18PM 30.7614 -78.9039 195° South 441 507 38,000  Level Jacksonville Center
06:19PM 30.6372 -78.9381 193° South 454 522 38,000  Level Jacksonville Center
06:20PM 30.5483 -78.9603 192° South 435 501 38,000  Level Miami Center
06:21PM 30.4311 -78.9939 194° South 426 490 38,000  Level Miami Center
06:22PM 30.3136 -79.0419 199° South 437 503 38,000  Level Miami Center
06:23PM 30.2025 -79.0925 201° Southwest 442 509 38,000  Level Miami Center
06:24PM 30.0850 -79.1406 199° South 448 516 38,000  Level Miami Center
06:25PM 29.9650 -79.2003 203° Southwest 441 507 38,000  Level Miami Center
06:26PM 29.8517 -79.2481 200° South 436 502 38,000  Level Miami Center
06:27PM 29.7403 -79.2956 200° South 436 502 38,000  Level Miami Center
06:28PM 29.6292 -79.3433 200° South 436 502 38,000  Level Miami Center
06:29PM 29.5175 -79.3931 201° Southwest 436 502 38,000  Level Miami Center
06:30PM 29.4061 -79.4431 201° Southwest 431 496 38,000  Level Miami Center
06:31PM 29.2906 -79.4878 199° South 431 496 38,000  Level Miami Center
06:32PM 29.1772 -79.5350 200° South 431 496 38,000  Level Miami Center
06:33PM 29.0656 -79.5847 201° Southwest 431 496 38,000  Level Miami Center
06:34PM 28.9519 -79.6364 202° Southwest 431 496 38,000 -480 Level Miami Center
06:35PM 28.8486 -79.6953 207° Southwest 431 496 37,100 -1,200 Descending Miami Center
06:36PM 28.7756 -79.7978 231° Southwest 420 483 35,700 -2,160 Descending Miami Center
06:37PM 28.7108 -79.9047 235° Southwest 410 472 32,800 -2,820 Descending Miami Center
06:38PM 28.6522 -80.0097 238° Southwest 405 466 30,100 -2,520 Descending Miami Center
06:39PM 28.5933 -80.1192 239° Southwest 405 466 27,800 -2,220 Descending Miami Center
06:40PM 28.5389 -80.2239 239° Southwest 395 455 25,700 -1,920 Descending Miami Center
06:41PM 28.4928 -80.3169 241° Southwest 395 455 24,000 -1,380 Descending Miami Center
06:42PM 28.4483 -80.4264 245° Southwest 387 445 23,000 -1,080 Descending Miami Center
06:43PM 28.3994 -80.5478 245° Southwest 382 440 21,900 -1,260 Descending Miami Center
06:44PM 28.3572 -80.6453 244° Southwest 382 440 20,500 -960 Descending Miami Center
06:45PM 28.3147 -80.7500 245° Southwest 380 437 20,000 -300 Descending Miami Center
06:46PM 28.2722 -80.8569 246° West 374 430 20,000  Level Miami Center
06:47PM 28.2294 -80.9661 246° West 374 430 20,000  Level Miami Center
06:48PM 28.1867 -81.0706 245° Southwest 374 430 20,000  Level Miami Center
06:49PM 28.1392 -81.1911 246° West 379 436 20,000  Level Miami Center
06:50PM 28.0944 -81.2978 245° Southwest 379 436 20,000  Level Miami Center
06:51PM 28.0411 -81.3967 239° Southwest 374 430 20,000 -420 Level Miami Center
06:52PM 27.9742 -81.4669 223° Southwest 374 430 19,200 -900 Descending Miami Center
06:53PM 27.8756 -81.4889 191° South 346 398 18,200 -900 Descending Miami Center
06:54PM 27.7711 -81.4892 180° South 344 396 17,400 -900 Descending Miami Center
06:55PM 27.6689 -81.4850 178° South 361 415 16,400 -1,020 Descending Miami Center
06:56PM 27.5583 -81.4878 181° South 367 422 15,400 -1,080 Descending Miami Center
06:57PM 27.4603 -81.4861 179° South 367 422 14,300 -960 Descending Miami Center
06:58PM 27.3622 -81.4844 179° South 362 417 13,300 -1,020 Descending Miami Center
06:59PM 27.2494 -81.4847 180° South 351 404 12,100 -1,200 Descending Miami Center
07:00PM 27.1556 -81.4856 180° South 346 398 11,000 -1,140 Descending Miami Center
07:01PM 27.0636 -81.4842 179° South 341 392 9,900 -540 Descending Miami Center
07:02PM 26.9786 -81.4669 170° South 322 371 10,000  Climbing Miami Center
07:03PM 26.8964 -81.4264 156° South 317 365 10,000  Level Miami Center
07:04PM 26.8225 -81.3908 157° South 325 374 10,000 -60 Level Miami Center
07:05PM 26.7389 -81.3900 179° South 297 342 9,900 -900 Descending Miami Center
07:06PM 26.6589 -81.4147 195° South 281 323 8,300 -1,500 Descending Miami Center
07:07PM 26.6108 -81.4825 232° Southwest 266 306 6,900 -1,440 Descending Miami Center
07:08PM 26.5647 -81.5528 234° Southwest 280 322 5,500 -1,440 Descending Miami Center
07:10PM 26.5362 -81.7552 204° Southwest  Level Estimated
07:17PM 26.5333 -81.7500 318° Northwest  Level FlightAware Approximate
07:18PM 26.5362 -81.7552 318° Northwest  Level Estimated
07:19PM 26.5333 -81.7500 318° Northwest  Level FlightAware Approximate
07:20PM 26.5362 -81.7552 318° Northwest  Level Estimated
07:21PM 26.5333 -81.7500 318° Northwest  Level FlightAware Approximate
07:22PM 26.5362 -81.7552 318° Northwest  Level Estimated
07:23PM 26.5333 -81.7500 318° Northwest  Level FlightAware Approximate
07:24PM 26.5362 -81.7552 318° Northwest  Level Estimated
07:25PM 26.5333 -81.7500 318° Northwest  Level FlightAware Approximate
07:26PM 26.5362 -81.7552 318° Northwest  Level Estimated